Time;durP1;ratioP1;P1;durP2;ratioP2;P2;SDS_P1;SDS_P2;PMS_P1;PMS_P2;Temp;Humidity;BMP_temperature;BMP_pressure;BME280_temperature;BME280_humidity;BME280_pressure;Samples;Min_cycle;Max_cycle;Signal;HPM_P1;HPM_P2
2022/09/07 00:00:31;;;;;;;;;;;;;;;23.71;83.01;100369.97;4959407;28;20349;-79
2022/09/07 00:02:56;;;;;;;;;;;;;;;23.74;82.51;100363.38;4958781;28;20331;-78
2022/09/07 00:05:22;;;;;;;;;;;;;;;23.64;82.75;100358.81;4958674;28;20332;-78
2022/09/07 00:07:48;;;;;;;;;;;;;;;23.67;82.81;100370.06;4958595;28;19919;-79
2022/09/07 00:10:13;;;;;;;;;;;;;;;23.65;82.69;100369.75;4958628;28;19960;-78
2022/09/07 00:12:39;;;;;;;;;;;;;;;23.72;82.40;100365.88;4958621;28;19922;-78
2022/09/07 00:15:08;;;;;;;;;;;;;;;23.71;82.04;100370.78;4958986;28;20415;-79
2022/09/07 00:17:34;;;;;;;;;;;;;;;23.65;82.15;100366.06;4975895;28;19918;-80
2022/09/07 00:20:02;;;;;;;;;;;;;;;23.69;82.25;100363.94;4957770;28;20210;-79
2022/09/07 00:22:27;;;;;;;;;;;;;;;23.70;82.21;100365.53;4942724;28;19954;-80
2022/09/07 00:24:52;;;;;;;;;;;;;;;23.67;82.57;100363.59;4958425;28;19918;-78
2022/09/07 00:27:18;;;;;;;;;;;;;;;23.74;82.55;100369.06;4958452;28;19922;-78
2022/09/07 00:29:44;;;;;;;;;;;;;;;23.78;82.66;100364.09;4958322;28;20432;-79
2022/09/07 00:32:10;;;;;;;;;;;;;;;23.81;82.58;100373.75;4958278;28;19922;-79
2022/09/07 00:34:35;;;;;;;;;;;;;;;23.80;82.18;100375.78;4958186;28;19922;-79
2022/09/07 00:37:01;;;;;;;;;;;;;;;23.79;82.15;100371.34;4958807;28;19918;-79
2022/09/07 00:39:26;;;;;;;;;;;;;;;23.78;82.19;100375.44;4954839;28;20332;-79
2022/09/07 00:41:51;;;;;;;;;;;;;;;23.81;82.03;100382.25;4954966;29;20400;-79
2022/09/07 00:44:36;;;;;;;;;;;;;;;23.71;82.51;100381.34;4954887;29;19969;-79
2022/09/07 00:47:01;;;;;;;;;;;;;;;23.45;83.64;100386.88;4954940;29;19925;-78
2022/09/07 00:49:26;;;;;;;;;;;;;;;23.40;84.69;100387.41;4954934;29;19919;-78
2022/09/07 00:51:57;;;;;;;;;;;;;;;23.43;84.57;100383.66;4955149;29;19918;-79
2022/09/07 00:54:25;;;;;;;;;;;;;;;23.40;84.92;100390.25;4955322;29;19941;-78
2022/09/07 00:56:51;;;;;;;;;;;;;;;23.40;85.05;100395.13;4955132;29;19974;-79
2022/09/07 00:59:19;;;;;;;;;;;;;;;23.44;84.45;100393.81;4954780;29;19919;-77
2022/09/07 01:01:44;;;;;;;;;;;;;;;23.42;83.50;100382.06;4954774;29;19987;-78
2022/09/07 01:04:10;;;;;;;;;;;;;;;23.44;83.82;100379.59;4954759;29;19922;-78
2022/09/07 01:06:37;;;;;;;;;;;;;;;23.47;83.73;100381.53;4954716;29;19919;-79
2022/09/07 01:09:04;;;;;;;;;;;;;;;23.46;83.53;100385.63;4954685;29;19965;-79
2022/09/07 01:11:30;;;;;;;;;;;;;;;23.47;83.59;100384.38;4954631;29;19966;-79
2022/09/07 01:13:57;;;;;;;;;;;;;;;23.47;83.39;100387.22;4954564;29;20017;-77
2022/09/07 01:16:25;;;;;;;;;;;;;;;23.45;83.22;100386.88;4955389;29;20326;-79
2022/09/07 01:18:56;;;;;;;;;;;;;;;23.50;82.79;100377.03;4954625;29;19946;-79
2022/09/07 01:21:25;;;;;;;;;;;;;;;23.49;81.91;100381.91;4954577;29;19933;-78
2022/09/07 01:23:50;;;;;;;;;;;;;;;23.47;81.37;100378.69;4954558;29;19923;-79
2022/09/07 01:26:34;;;;;;;;;;;;;;;23.61;80.58;100371.03;4954541;29;19970;-79
2022/09/07 01:29:20;;;;;;;;;;;;;;;23.58;80.03;100371.94;4954519;29;20365;-78
2022/09/07 01:31:54;;;;;;;;;;;;;;;23.52;80.04;100368.84;4953507;29;19947;-77
2022/09/07 01:34:24;;;;;;;;;;;;;;;23.45;80.54;100364.16;4954377;29;19925;-79
2022/09/07 01:36:58;;;;;;;;;;;;;;;23.44;80.51;100365.41;4954422;29;19970;-78
2022/09/07 01:39:27;;;;;;;;;;;;;;;23.39;80.47;100363.09;4954207;29;19922;-80
2022/09/07 01:42:09;;;;;;;;;;;;;;;23.41;80.54;100359.81;4954443;29;20357;-78
2022/09/07 01:44:45;;;;;;;;;;;;;;;23.29;80.92;100355.69;4954723;29;20377;-77
2022/09/07 01:47:20;;;;;;;;;;;;;;;23.23;81.39;100348.94;4954596;29;19969;-78
2022/09/07 01:49:55;;;;;;;;;;;;;;;23.19;81.84;100339.72;4954362;29;20013;-80
2022/09/07 01:52:35;;;;;;;;;;;;;;;23.14;82.17;100343.09;4957198;29;19918;-79
2022/09/07 01:55:04;;;;;;;;;;;;;;;23.11;82.74;100338.28;4958550;29;19988;-78
2022/09/07 01:57:37;;;;;;;;;;;;;;;23.18;81.70;100323.94;4957622;29;20009;-78
2022/09/07 02:00:12;;;;;;;;;;;;;;;23.28;81.31;100325.69;4959241;28;19974;-78
2022/09/07 02:02:58;;;;;;;;;;;;;;;23.27;80.69;100321.25;4958406;29;19973;-79
2022/09/07 02:05:33;;;;;;;;;;;;;;;23.22;80.37;100304.75;4947120;29;19919;-79
2022/09/07 02:08:17;;;;;;;;;;;;;;;23.20;80.44;100315.75;4957947;29;19981;-79
2022/09/07 02:10:47;;;;;;;;;;;;;;;23.16;80.61;100313.00;4957640;29;19922;-79
2022/09/07 02:13:13;;;;;;;;;;;;;;;23.25;79.47;100309.53;4957535;29;20013;-79
2022/09/07 02:15:48;;;;;;;;;;;;;;;23.24;79.40;100313.63;4958065;29;20017;-78
2022/09/07 02:18:13;;;;;;;;;;;;;;;23.25;78.65;100309.53;4957773;29;20017;-78
2022/09/07 02:20:41;;;;;;;;;;;;;;;23.22;79.16;100299.91;4957444;29;19966;-78
2022/09/07 02:23:10;;;;;;;;;;;;;;;23.26;78.26;100294.09;4957378;29;19946;-79
2022/09/07 02:25:38;;;;;;;;;;;;;;;23.25;78.47;100286.84;4957351;29;20017;-78
2022/09/07 02:28:06;;;;;;;;;;;;;;;23.30;78.32;100296.84;4957288;29;19918;-79
2022/09/07 02:30:32;;;;;;;;;;;;;;;23.36;77.45;100304.38;4957885;29;20341;-79
2022/09/07 02:32:57;;;;;;;;;;;;;;;23.36;76.74;100310.06;4957225;29;19973;-77
2022/09/07 02:35:22;;;;;;;;;;;;;;;23.25;77.04;100316.03;4957151;29;20013;-78
2022/09/07 02:37:49;;;;;;;;;;;;;;;23.25;77.62;100312.38;4957187;29;19957;-77
2022/09/07 02:40:14;;;;;;;;;;;;;;;23.25;77.52;100303.88;4956883;29;19929;-77
2022/09/07 02:42:40;;;;;;;;;;;;;;;23.26;77.09;100313.97;4957053;29;20444;-79
2022/09/07 02:45:08;;;;;;;;;;;;;;;23.26;76.74;100311.13;4957352;29;19929;-79
2022/09/07 02:48:01;;;;;;;;;;;;;;;23.28;76.85;100320.03;4953920;29;19922;-79
2022/09/07 02:50:43;;;;;;;;;;;;;;;23.31;76.43;100313.44;4957499;29;20365;-77
2022/09/07 02:53:27;;;;;;;;;;;;;;;23.24;76.81;100308.75;4958314;28;19926;-77
2022/09/07 02:55:52;;;;;;;;;;;;;;;23.29;76.43;100303.78;4957414;29;19926;-79
2022/09/07 02:58:33;;;;;;;;;;;;;;;23.30;76.00;100311.84;4957386;29;20277;-79
2022/09/07 03:01:04;;;;;;;;;;;;;;;23.26;75.93;100311.13;4957582;29;20325;-79
2022/09/07 03:03:37;;;;;;;;;;;;;;;23.36;75.28;100309.25;4955436;28;19970;-78
2022/09/07 03:06:08;;;;;;;;;;;;;;;23.32;75.73;100314.22;4957224;29;20277;-78
2022/09/07 03:08:54;;;;;;;;;;;;;;;23.29;76.08;100317.97;4957830;28;20369;-78
2022/09/07 03:11:20;;;;;;;;;;;;;;;23.40;75.94;100322.13;4955674;29;20373;-78
2022/09/07 03:13:45;;;;;;;;;;;;;;;23.36;76.16;100318.56;4956691;29;19923;-78
2022/09/07 03:16:14;;;;;;;;;;;;;;;23.46;76.06;100319.53;4956458;29;19918;-77
2022/09/07 03:18:40;;;;;;;;;;;;;;;23.34;76.44;100318.22;4956414;29;19919;-79
2022/09/07 03:21:05;;;;;;;;;;;;;;;23.32;76.63;100326.38;4956369;29;19923;-78
2022/09/07 03:23:32;;;;;;;;;;;;;;;23.23;76.16;100329.88;4956322;29;20010;-78
2022/09/07 03:25:57;;;;;;;;;;;;;;;23.29;75.98;100332.16;4956506;29;19919;-79
2022/09/07 03:28:22;;;;;;;;;;;;;;;23.16;76.83;100330.03;4956118;29;19918;-79
2022/09/07 03:30:48;;;;;;;;;;;;;;;23.04;77.32;100329.97;4956212;29;19926;-79
2022/09/07 03:33:16;;;;;;;;;;;;;;;23.12;76.94;100322.88;4956093;29;19918;-77
2022/09/07 03:35:42;;;;;;;;;;;;;;;23.00;77.44;100324.38;4956709;29;19941;-78
2022/09/07 03:38:08;;;;;;;;;;;;;;;22.94;78.11;100324.13;4956826;29;19919;-78
2022/09/07 03:40:33;;;;;;;;;;;;;;;22.95;77.92;100325.72;4956883;29;20383;-80
2022/09/07 03:42:59;;;;;;;;;;;;;;;22.91;77.80;100324.25;4956361;29;20013;-79
2022/09/07 03:45:24;;;;;;;;;;;;;;;22.88;77.11;100322.28;4956118;29;19925;-78
2022/09/07 03:47:50;;;;;;;;;;;;;;;22.97;77.04;100320.41;4955834;29;19973;-79
2022/09/07 03:50:15;;;;;;;;;;;;;;;22.99;76.40;100320.75;4956407;29;19922;-78
2022/09/07 03:52:40;;;;;;;;;;;;;;;22.97;76.28;100316.78;4957361;28;19918;-78
2022/09/07 03:55:06;;;;;;;;;;;;;;;22.85;74.63;100306.94;4955946;29;19918;-79
2022/09/07 03:57:31;;;;;;;;;;;;;;;22.89;74.46;100296.28;4955961;29;20384;-78
2022/09/07 03:59:57;;;;;;;;;;;;;;;22.92;74.54;100286.91;4955653;29;20328;-79
2022/09/07 04:02:22;;;;;;;;;;;;;;;22.93;75.35;100288.50;4956143;29;19948;-78
2022/09/07 04:04:48;;;;;;;;;;;;;;;22.92;75.52;100292.59;4955856;29;20373;-78
2022/09/07 04:07:13;;;;;;;;;;;;;;;22.88;75.95;100289.03;4955486;29;19918;-78
2022/09/07 04:09:39;;;;;;;;;;;;;;;22.85;75.57;100287.06;4955190;29;19918;-78
2022/09/07 04:12:04;;;;;;;;;;;;;;;22.79;75.00;100291.66;4955706;29;19918;-78
2022/09/07 04:14:30;;;;;;;;;;;;;;;22.68;75.82;100305.31;4954972;28;20394;-78
2022/09/07 04:16:55;;;;;;;;;;;;;;;22.67;76.25;100292.38;4955628;29;19928;-79
2022/09/07 04:19:21;;;;;;;;;;;;;;;22.68;76.57;100293.97;4956180;28;20382;-79
2022/09/07 04:21:47;;;;;;;;;;;;;;;22.73;76.78;100299.13;4955267;29;19918;-79
2022/09/07 04:24:15;;;;;;;;;;;;;;;22.71;77.15;100298.78;4955180;29;19962;-78
2022/09/07 04:26:42;;;;;;;;;;;;;;;22.73;76.96;100301.94;4956793;28;19919;-78
2022/09/07 04:29:08;;;;;;;;;;;;;;;22.83;76.59;100306.56;4956095;28;19949;-79
2022/09/07 04:31:34;;;;;;;;;;;;;;;22.84;76.86;100302.47;4955225;29;19957;-78
2022/09/07 04:34:00;;;;;;;;;;;;;;;22.81;77.35;100313.94;4955049;29;19973;-79
2022/09/07 04:36:25;;;;;;;;;;;;;;;22.67;77.93;100317.91;4955063;29;20021;-77
2022/09/07 04:38:55;;;;;;;;;;;;;;;22.54;78.23;100309.31;4954740;29;19923;-77
2022/09/07 04:41:20;;;;;;;;;;;;;;;22.47;78.69;100309.47;4955010;29;19923;-78
2022/09/07 04:43:45;;;;;;;;;;;;;;;22.45;78.73;100304.25;4955500;29;19975;-79
2022/09/07 04:46:11;;;;;;;;;;;;;;;22.47;78.33;100312.31;4955003;29;20357;-78
2022/09/07 04:48:36;;;;;;;;;;;;;;;22.55;77.61;100307.28;4954896;29;19918;-79
2022/09/07 04:51:03;;;;;;;;;;;;;;;22.55;77.67;100310.09;4954862;29;19919;-79
2022/09/07 04:53:29;;;;;;;;;;;;;;;22.53;77.43;100321.06;4955010;29;19919;-79
2022/09/07 04:55:56;;;;;;;;;;;;;;;22.44;77.27;100316.84;4954979;29;20408;-79
2022/09/07 04:58:21;;;;;;;;;;;;;;;22.41;77.48;100325.41;4954666;29;19926;-79
2022/09/07 05:00:47;;;;;;;;;;;;;;;22.41;77.60;100314.88;4956043;28;19919;-79
2022/09/07 05:03:12;;;;;;;;;;;;;;;22.48;77.20;100316.75;4954725;29;19918;-77
2022/09/07 05:05:38;;;;;;;;;;;;;;;22.53;76.55;100321.06;4954669;29;19918;-77
2022/09/07 05:08:04;;;;;;;;;;;;;;;22.63;75.34;100320.03;4955585;28;19918;-79
2022/09/07 05:10:29;;;;;;;;;;;;;;;22.60;75.81;100312.41;4955239;29;19925;-79
2022/09/07 05:12:55;;;;;;;;;;;;;;;22.69;75.29;100318.25;4954628;29;20333;-79
2022/09/07 05:15:21;;;;;;;;;;;;;;;22.76;75.08;100320.94;4955119;29;19918;-77
2022/09/07 05:17:46;;;;;;;;;;;;;;;22.87;74.42;100323.50;4954341;29;19918;-78
2022/09/07 05:20:12;;;;;;;;;;;;;;;23.29;72.43;100315.94;4954223;29;20274;-78
2022/09/07 05:22:39;;;;;;;;;;;;;;;23.67;70.64;100312.47;4956198;28;19926;-77
2022/09/07 05:25:05;;;;;;;;;;;;;;;24.12;68.82;100318.00;4954804;28;20265;-78
2022/09/07 05:27:31;;;;;;;;;;;;;;;24.52;67.16;100315.56;4957810;29;20334;-77
2022/09/07 05:29:56;;;;;;;;;;;;;;;24.99;65.87;100317.66;4958517;29;19919;-78
2022/09/07 05:32:21;;;;;;;;;;;;;;;25.37;64.22;100325.31;4958328;29;20382;-77
2022/09/07 05:34:47;;;;;;;;;;;;;;;25.81;62.02;100334.72;4958227;29;19918;-76
2022/09/07 05:37:12;;;;;;;;;;;;;;;26.24;61.12;100333.06;4958832;29;19945;-78
2022/09/07 05:39:38;;;;;;;;;;;;;;;26.63;60.44;100331.53;4958038;29;19999;-78
2022/09/07 05:42:03;;;;;;;;;;;;;;;27.06;59.12;100326.91;4958213;29;19944;-78
2022/09/07 05:44:31;;;;;;;;;;;;;;;27.50;58.68;100329.50;4958356;29;19975;-78
2022/09/07 05:46:58;;;;;;;;;;;;;;;27.96;57.03;100329.44;4958606;29;19926;-76
2022/09/07 05:49:32;;;;;;;;;;;;;;;28.24;56.41;100335.91;4957708;29;19918;-78
2022/09/07 05:52:02;;;;;;;;;;;;;;;28.81;55.08;100333.13;4958377;28;19918;-77
2022/09/07 05:54:27;;;;;;;;;;;;;;;29.00;54.30;100327.34;4957449;29;19918;-78
2022/09/07 05:56:53;;;;;;;;;;;;;;;28.89;56.08;100330.72;4957549;29;20029;-77
2022/09/07 05:59:18;;;;;;;;;;;;;;;29.37;54.10;100331.53;4957949;29;19923;-77
2022/09/07 06:01:43;;;;;;;;;;;;;;;29.49;53.82;100329.69;4957591;29;20420;-79
2022/09/07 06:04:09;;;;;;;;;;;;;;;29.58;53.20;100332.50;4956903;29;19919;-79
2022/09/07 06:06:37;;;;;;;;;;;;;;;29.38;54.01;100321.63;4957140;29;19957;-79
2022/09/07 06:09:02;;;;;;;;;;;;;;;29.49;53.88;100321.06;4957398;29;19925;-77
2022/09/07 06:11:28;;;;;;;;;;;;;;;29.75;52.68;100324.22;4957226;29;19918;-78
2022/09/07 06:13:53;;;;;;;;;;;;;;;30.10;52.73;100324.34;4957359;29;19966;-80
2022/09/07 06:16:19;;;;;;;;;;;;;;;30.61;51.20;100320.22;4957320;29;19926;-78
2022/09/07 06:18:45;;;;;;;;;;;;;;;30.92;49.96;100327.50;4957046;29;20326;-79
2022/09/07 06:21:11;;;;;;;;;;;;;;;31.27;47.83;100327.50;4957556;29;20349;-77
2022/09/07 06:23:38;;;;;;;;;;;;;;;31.27;46.23;100330.38;4956954;29;19925;-76
2022/09/07 06:26:04;;;;;;;;;;;;;;;31.47;45.33;100327.44;4956989;29;19919;-75
2022/09/07 06:28:32;;;;;;;;;;;;;;;31.99;45.08;100327.53;4957488;29;19970;-76
2022/09/07 06:30:59;;;;;;;;;;;;;;;32.02;43.58;100320.75;4956435;29;19919;-77
2022/09/07 06:33:24;;;;;;;;;;;;;;;31.79;42.78;100330.41;4940786;29;20357;-77
2022/09/07 06:35:57;;;;;;;;;;;;;;;31.50;44.70;100319.91;4956708;29;19926;-79
2022/09/07 06:38:22;;;;;;;;;;;;;;;30.38;46.28;100321.19;4957902;28;20373;-77
2022/09/07 06:40:47;;;;;;;;;;;;;;;30.19;47.23;100317.72;4959995;28;19925;-77
2022/09/07 06:43:13;;;;;;;;;;;;;;;30.37;46.18;100328.22;4959859;28;19925;-78
2022/09/07 06:45:38;;;;;;;;;;;;;;;29.87;47.11;100320.25;4960025;28;19925;-78
2022/09/07 06:48:04;;;;;;;;;;;;;;;29.62;48.11;100324.50;4959852;28;19918;-78
2022/09/07 06:50:30;;;;;;;;;;;;;;;29.85;48.46;100327.78;4959676;28;20005;-77
2022/09/07 06:52:55;;;;;;;;;;;;;;;29.96;48.52;100339.47;4960157;28;20024;-77
2022/09/07 06:55:20;;;;;;;;;;;;;;;29.72;49.54;100334.59;4959629;28;19918;-78
2022/09/07 06:57:46;;;;;;;;;;;;;;;30.14;48.27;100333.56;4960230;28;20277;-79
2022/09/07 07:00:11;;;;;;;;;;;;;;;30.52;48.31;100340.44;4960133;28;19925;-79
2022/09/07 07:02:37;;;;;;;;;;;;;;;30.29;49.03;100344.25;4959823;28;20337;-79
2022/09/07 07:05:02;;;;;;;;;;;;;;;29.82;50.31;100329.56;4959625;28;20293;-79
2022/09/07 07:07:48;;;;;;;;;;;;;;;29.10;53.22;100343.19;4959229;28;19926;-79
2022/09/07 07:10:13;;;;;;;;;;;;;;;28.48;55.24;100336.00;4958953;28;19928;-78
2022/09/07 07:12:39;;;;;;;;;;;;;;;28.26;55.54;100336.22;4959502;28;19982;-77
2022/09/07 07:15:04;;;;;;;;;;;;;;;28.65;54.87;100342.13;4959213;28;19918;-78
2022/09/07 07:17:30;;;;;;;;;;;;;;;28.53;54.41;100341.06;4959272;28;20013;-77
2022/09/07 07:19:59;;;;;;;;;;;;;;;28.67;55.83;100340.38;4959307;28;20012;-78
2022/09/07 07:22:25;;;;;;;;;;;;;;;29.58;51.92;100337.44;4958707;28;19922;-77
2022/09/07 07:24:50;;;;;;;;;;;;;;;29.57;50.72;100335.88;4959244;28;19925;-77
2022/09/07 07:27:16;;;;;;;;;;;;;;;29.06;52.35;100340.50;4959139;28;19921;-77
2022/09/07 07:29:42;;;;;;;;;;;;;;;29.02;51.95;100348.47;4959561;28;20277;-78
2022/09/07 07:32:07;;;;;;;;;;;;;;;29.16;52.10;100341.25;4959028;28;19918;-77
2022/09/07 07:34:32;;;;;;;;;;;;;;;29.95;49.59;100344.41;4958947;28;19925;-77
2022/09/07 07:36:58;;;;;;;;;;;;;;;30.43;48.45;100344.22;4958725;28;19953;-77
2022/09/07 07:39:23;;;;;;;;;;;;;;;30.14;50.88;100335.63;4958773;28;19922;-77
2022/09/07 07:41:48;;;;;;;;;;;;;;;31.17;48.01;100344.06;4959674;28;19918;-78
2022/09/07 07:44:14;;;;;;;;;;;;;;;31.75;46.75;100341.38;4958761;28;19919;-78
2022/09/07 07:46:45;;;;;;;;;;;;;;;31.86;46.38;100344.41;4959068;28;20024;-79
2022/09/07 07:49:11;;;;;;;;;;;;;;;31.98;46.71;100342.41;4957915;28;19925;-78
2022/09/07 07:51:36;;;;;;;;;;;;;;;31.87;47.17;100345.19;4958504;28;19918;-77
2022/09/07 07:54:01;;;;;;;;;;;;;;;32.60;44.43;100343.78;4976534;28;19918;-78
2022/09/07 07:56:27;;;;;;;;;;;;;;;32.97;43.30;100342.97;4958513;28;20415;-77
2022/09/07 07:58:52;;;;;;;;;;;;;;;32.01;46.51;100352.91;4958928;28;19918;-78
2022/09/07 08:01:18;;;;;;;;;;;;;;;32.01;48.37;100352.91;4958733;28;19918;-78
2022/09/07 08:03:44;;;;;;;;;;;;;;;31.82;46.90;100346.69;4959024;28;19919;-78
2022/09/07 08:06:12;;;;;;;;;;;;;;;31.04;48.79;100350.13;4958300;28;20380;-78
2022/09/07 08:08:38;;;;;;;;;;;;;;;30.63;50.08;100352.13;4958425;28;19918;-78
2022/09/07 08:11:07;;;;;;;;;;;;;;;30.97;50.41;100344.81;4942450;28;19929;-79
2022/09/07 08:13:33;;;;;;;;;;;;;;;31.13;48.86;100352.09;4958609;28;19941;-79
2022/09/07 08:15:59;;;;;;;;;;;;;;;32.28;46.03;100352.41;4958276;28;19917;-78
2022/09/07 08:18:24;;;;;;;;;;;;;;;32.88;44.59;100343.16;4958120;28;19925;-78
2022/09/07 08:20:50;;;;;;;;;;;;;;;33.60;43.02;100346.44;4958114;28;19918;-78
2022/09/07 08:23:16;;;;;;;;;;;;;;;34.38;40.72;100345.00;4958026;28;19922;-78
2022/09/07 08:25:51;;;;;;;;;;;;;;;33.87;41.70;100347.81;4957980;28;19918;-79
2022/09/07 08:28:17;;;;;;;;;;;;;;;32.79;44.20;100344.94;4957711;28;19973;-78
2022/09/07 08:30:42;;;;;;;;;;;;;;;32.67;45.43;100351.16;4957919;28;19926;-78
2022/09/07 08:33:07;;;;;;;;;;;;;;;32.99;44.28;100343.25;4957925;28;20215;-78
2022/09/07 08:35:33;;;;;;;;;;;;;;;33.03;44.27;100344.59;4957736;28;19922;-77
2022/09/07 08:37:58;;;;;;;;;;;;;;;33.78;42.37;100342.31;4957954;28;19922;-78
2022/09/07 08:40:23;;;;;;;;;;;;;;;34.00;41.98;100343.69;4954217;29;19928;-78
2022/09/07 08:43:04;;;;;;;;;;;;;;;32.98;44.30;100341.69;4955294;29;19926;-79
2022/09/07 08:45:36;;;;;;;;;;;;;;;32.94;44.37;100344.03;4954502;29;20029;-77
2022/09/07 08:48:03;;;;;;;;;;;;;;;32.88;44.30;100360.47;4955145;29;20378;-78
2022/09/07 08:50:38;;;;;;;;;;;;;;;32.19;45.56;100361.19;4954993;29;19941;-78
2022/09/07 08:53:07;;;;;;;;;;;;;;;32.40;45.03;100359.06;4954587;29;19922;-79
2022/09/07 08:55:35;;;;;;;;;;;;;;;32.85;44.14;100363.03;4955259;29;20266;-77
2022/09/07 08:58:08;;;;;;;;;;;;;;;32.60;44.85;100358.19;4954560;29;19925;-78
2022/09/07 09:00:34;;;;;;;;;;;;;;;33.19;43.19;100350.97;4954374;29;19918;-77
2022/09/07 09:03:01;;;;;;;;;;;;;;;33.93;41.65;100355.69;4954890;29;19934;-75
2022/09/07 09:05:43;;;;;;;;;;;;;;;34.65;40.28;100352.91;4954322;29;20058;-78
2022/09/07 09:08:27;;;;;;;;;;;;;;;34.03;41.60;100359.94;4954377;29;19925;-78
2022/09/07 09:11:08;;;;;;;;;;;;;;;33.72;41.39;100364.59;4954372;29;19918;-79
2022/09/07 09:13:33;;;;;;;;;;;;;;;33.75;41.09;100368.50;4954986;29;19926;-76
2022/09/07 09:16:17;;;;;;;;;;;;;;;33.45;41.87;100376.78;4955056;29;20270;-79
2022/09/07 09:18:54;;;;;;;;;;;;;;;34.35;39.60;100372.81;4954252;29;19923;-80
2022/09/07 09:21:19;;;;;;;;;;;;;;;34.44;37.91;100363.16;4954424;29;19918;-76
2022/09/07 09:23:51;;;;;;;;;;;;;;;33.59;39.34;100361.38;4954585;29;20397;-79
2022/09/07 09:26:16;;;;;;;;;;;;;;;32.71;40.86;100363.22;4954398;29;19946;-79
2022/09/07 09:28:51;;;;;;;;;;;;;;;33.12;40.73;100366.63;4954101;29;19918;-79
2022/09/07 09:31:21;;;;;;;;;;;;;;;33.80;38.58;100370.63;4954130;29;20057;-78
2022/09/07 09:34:06;;;;;;;;;;;;;;;32.99;40.51;100375.75;4954648;29;19922;-79
2022/09/07 09:36:33;;;;;;;;;;;;;;;32.95;40.50;100362.88;4954169;29;19919;-79
2022/09/07 09:38:59;;;;;;;;;;;;;;;33.61;36.77;100358.75;4962232;28;19922;-82
2022/09/07 09:41:34;;;;;;;;;;;;;;;33.98;37.18;100358.63;4941719;28;19929;-81
2022/09/07 09:43:59;;;;;;;;;;;;;;;34.39;36.88;100353.16;4957509;28;20396;-82
2022/09/07 09:46:26;;;;;;;;;;;;;;;34.54;36.37;100357.91;4957432;28;19917;-81
2022/09/07 09:49:04;;;;;;;;;;;;;;;34.31;37.35;100357.88;4958009;28;19918;-82
2022/09/07 09:51:31;;;;;;;;;;;;;;;35.23;35.16;100360.94;4957323;28;19925;-80
2022/09/07 09:54:00;;;;;;;;;;;;;;;34.75;35.85;100355.50;4957949;28;20277;-80
2022/09/07 09:56:36;;;;;;;;;;;;;;;34.29;36.12;100356.81;4957340;28;19969;-81
2022/09/07 09:59:28;;;;;;;;;;;;;;;34.44;35.75;100347.91;4957702;28;19973;-79
2022/09/07 10:01:53;;;;;;;;;;;;;;;35.10;35.10;100341.28;4971545;28;19918;-82
2022/09/07 10:04:22;;;;;;;;;;;;;;;35.02;34.63;100348.13;4957812;28;19918;-80
2022/09/07 10:06:52;;;;;;;;;;;;;;;34.58;35.32;100341.09;4957759;28;19989;-82
2022/09/07 10:09:21;;;;;;;;;;;;;;;34.50;35.33;100331.38;4957857;28;19941;-83
2022/09/07 10:11:49;;;;;;;;;;;;;;;34.05;36.06;100337.91;4958600;28;19922;-82
2022/09/07 10:14:35;;;;;;;;;;;;;;;33.54;37.53;100330.41;4978649;28;20009;-83
2022/09/07 10:17:09;;;;;;;;;;;;;;;34.07;37.14;100329.50;4960520;28;19918;-84
2022/09/07 10:19:35;;;;;;;;;;;;;;;34.73;35.55;100330.03;4978828;28;19972;-83
2022/09/07 10:22:19;;;;;;;;;;;;;;;34.21;37.67;100319.03;4960637;28;19918;-83
2022/09/07 10:24:45;;;;;;;;;;;;;;;33.96;36.69;100314.28;4960492;28;19922;-81
2022/09/07 10:27:29;;;;;;;;;;;;;;;33.80;37.09;100313.69;4978268;28;20049;-82
2022/09/07 10:29:54;;;;;;;;;;;;;;;33.06;38.16;100313.94;4961172;28;20073;-83
2022/09/07 10:32:20;;;;;;;;;;;;;;;33.34;36.61;100306.19;4960341;28;20377;-83
2022/09/07 10:34:45;;;;;;;;;;;;;;;34.45;35.07;100309.84;4960309;28;19985;-82
2022/09/07 10:37:17;;;;;;;;;;;;;;;34.23;35.90;100299.06;4961019;28;19993;-83
2022/09/07 10:39:54;;;;;;;;;;;;;;;34.43;35.87;100300.91;4957293;29;19933;-83
2022/09/07 10:42:19;;;;;;;;;;;;;;;34.94;34.19;100292.94;4956915;29;19934;-82
2022/09/07 10:44:44;;;;;;;;;;;;;;;35.34;34.06;100297.25;4956578;29;19918;-81
2022/09/07 10:47:15;;;;;;;;;;;;;;;35.62;33.29;100296.34;4957510;29;19922;-82
2022/09/07 10:49:44;;;;;;;;;;;;;;;35.53;33.96;100294.56;4956886;29;19922;-83
2022/09/07 10:52:12;;;;;;;;;;;;;;;34.82;36.21;100297.94;4956774;29;19957;-82
2022/09/07 10:54:53;;;;;;;;;;;;;;;34.54;35.93;100294.34;4956710;29;19965;-84
2022/09/07 10:57:38;;;;;;;;;;;;;;;34.23;35.51;100298.28;4956896;29;19950;-81
2022/09/07 11:00:04;;;;;;;;;;;;;;;33.94;36.23;100302.47;4957605;29;19918;-82
2022/09/07 11:02:48;;;;;;;;;;;;;;;33.93;36.48;100295.09;4956995;29;20373;-82
2022/09/07 11:05:13;;;;;;;;;;;;;;;33.93;36.42;100286.44;4956773;29;19919;-83
2022/09/07 11:07:39;;;;;;;;;;;;;;;33.54;37.83;100290.81;4958142;29;19918;-80
2022/09/07 11:10:07;;;;;;;;;;;;;;;33.17;38.31;100290.16;4956583;29;19942;-81
2022/09/07 11:12:35;;;;;;;;;;;;;;;33.38;36.80;100286.56;4956561;29;19918;-83
2022/09/07 11:15:13;;;;;;;;;;;;;;;33.14;37.55;100292.00;4956682;29;19919;-83
2022/09/07 11:17:44;;;;;;;;;;;;;;;33.44;37.52;100288.69;4957691;28;19918;-83
2022/09/07 11:20:17;;;;;;;;;;;;;;;33.53;36.34;100291.34;4956862;29;19926;-84
2022/09/07 11:22:58;;;;;;;;;;;;;;;33.32;37.00;100297.28;4957319;28;20457;-82
2022/09/07 11:25:30;;;;;;;;;;;;;;;33.57;36.85;100294.78;4955819;29;19919;-84
2022/09/07 11:27:57;;;;;;;;;;;;;;;33.46;37.09;100295.53;4956490;29;19919;-83
2022/09/07 11:30:28;;;;;;;;;;;;;;;33.51;38.03;100293.97;4956484;29;19925;-83
2022/09/07 11:32:59;;;;;;;;;;;;;;;33.32;38.57;100294.41;4957473;28;20333;-82
2022/09/07 11:35:40;;;;;;;;;;;;;;;33.76;37.66;100295.84;4956056;29;19918;-81
2022/09/07 11:38:15;;;;;;;;;;;;;;;33.61;37.65;100293.22;4956418;29;20314;-84
2022/09/07 11:40:59;;;;;;;;;;;;;;;33.71;37.45;100292.97;4936779;29;20009;-81
2022/09/07 11:43:34;;;;;;;;;;;;;;;33.71;37.97;100279.31;4936757;29;19919;-81
2022/09/07 11:46:19;;;;;;;;;;;;;;;33.13;38.85;100275.19;4936830;29;19954;-81
2022/09/07 11:48:49;;;;;;;;;;;;;;;33.42;38.38;100279.78;4937498;29;19918;-81
2022/09/07 11:51:20;;;;;;;;;;;;;;;34.15;37.54;100272.06;4936632;29;19925;-81
2022/09/07 11:53:50;;;;;;;;;;;;;;;34.50;36.35;100282.28;4937183;29;20277;-81
2022/09/07 11:56:47;;;;;;;;;;;;;;;33.03;38.13;100275.44;4936606;29;19918;-82
2022/09/07 11:59:16;;;;;;;;;;;;;;;33.42;37.46;100268.25;4905275;29;19974;-84
2022/09/07 12:01:41;;;;;;;;;;;;;;;33.37;37.58;100266.91;4936528;29;19925;-81
2022/09/07 12:04:11;;;;;;;;;;;;;;;33.55;37.42;100262.78;4937143;29;19919;-81
2022/09/07 12:06:55;;;;;;;;;;;;;;;33.81;36.63;100259.66;4938135;29;20310;-82
2022/09/07 12:09:30;;;;;;;;;;;;;;;33.23;37.80;100260.03;4938180;29;20441;-81
2022/09/07 12:12:15;;;;;;;;;;;;;;;34.16;36.43;100264.19;4937410;29;19918;-81
2022/09/07 12:15:16;;;;;;;;;;;;;;;33.57;37.68;100260.16;4936197;29;19919;-83
2022/09/07 12:17:58;;;;;;;;;;;;;;;33.65;37.64;100260.44;4881672;29;19926;-83
2022/09/07 12:20:43;;;;;;;;;;;;;;;33.35;36.93;100264.53;4930943;29;19919;-83
2022/09/07 12:23:14;;;;;;;;;;;;;;;33.66;36.47;100267.75;4936390;29;20066;-84
2022/09/07 12:25:40;;;;;;;;;;;;;;;33.75;36.49;100264.63;4936200;29;19969;-84
2022/09/07 12:28:15;;;;;;;;;;;;;;;34.19;34.20;100266.78;4936098;29;19926;-83
2022/09/07 12:30:48;;;;;;;;;;;;;;;33.82;33.22;100262.00;4933101;29;20021;-84
2022/09/07 12:33:31;;;;;;;;;;;;;;;34.07;33.85;100256.56;4936688;29;20262;-81
2022/09/07 12:35:59;;;;;;;;;;;;;;;34.06;33.30;100272.31;4937679;29;19930;-85
2022/09/07 12:38:30;;;;;;;;;;;;;;;34.08;32.62;100281.22;4940398;28;19923;-86
2022/09/07 12:41:00;;;;;;;;;;;;;;;34.34;31.50;100266.50;4958633;28;20332;-84
2022/09/07 12:43:34;;;;;;;;;;;;;;;34.25;29.59;100261.00;4958303;28;19925;-84
2022/09/07 12:46:00;;;;;;;;;;;;;;;33.89;30.54;100255.75;4958018;28;19918;-83